sensor_id;sensor_type;location;lat;lon;timestamp;P1;durP1;ratioP1;P2;durP2;ratioP2
41275;SDS011;27010;47.718;12.912;2024-02-21T00:00:46;2.70;;;1.03;;
41275;SDS011;27010;47.718;12.912;2024-02-21T00:03:48;4.33;;;1.20;;
41275;SDS011;27010;47.718;12.912;2024-02-21T00:06:50;4.83;;;1.13;;
41275;SDS011;27010;47.718;12.912;2024-02-21T00:09:52;4.43;;;1.33;;
41275;SDS011;27010;47.718;12.912;2024-02-21T00:12:55;5.67;;;0.93;;
41275;SDS011;27010;47.718;12.912;2024-02-21T00:15:57;7.50;;;1.20;;
41275;SDS011;27010;47.718;12.912;2024-02-21T00:18:59;1.83;;;0.83;;
41275;SDS011;27010;47.718;12.912;2024-02-21T00:22:01;2.47;;;1.10;;
41275;SDS011;27010;47.718;12.912;2024-02-21T00:25:03;2.63;;;1.40;;
41275;SDS011;27010;47.718;12.912;2024-02-21T00:28:07;4.40;;;1.50;;
41275;SDS011;27010;47.718;12.912;2024-02-21T00:31:10;2.73;;;1.10;;
41275;SDS011;27010;47.718;12.912;2024-02-21T00:34:12;1.90;;;1.00;;
41275;SDS011;27010;47.718;12.912;2024-02-21T00:37:15;3.87;;;1.30;;
41275;SDS011;27010;47.718;12.912;2024-02-21T00:40:17;3.43;;;1.60;;
41275;SDS011;27010;47.718;12.912;2024-02-21T00:43:22;3.90;;;1.17;;
41275;SDS011;27010;47.718;12.912;2024-02-21T00:46:25;4.77;;;1.07;;
41275;SDS011;27010;47.718;12.912;2024-02-21T00:49:27;2.13;;;0.87;;
41275;SDS011;27010;47.718;12.912;2024-02-21T00:52:29;3.63;;;0.90;;
41275;SDS011;27010;47.718;12.912;2024-02-21T00:55:31;3.10;;;0.97;;
41275;SDS011;27010;47.718;12.912;2024-02-21T00:58:34;2.63;;;0.97;;
41275;SDS011;27010;47.718;12.912;2024-02-21T01:01:36;2.67;;;1.00;;
41275;SDS011;27010;47.718;12.912;2024-02-21T01:04:38;1.33;;;0.90;;
41275;SDS011;27010;47.718;12.912;2024-02-21T01:07:40;2.37;;;1.63;;
41275;SDS011;27010;47.718;12.912;2024-02-21T01:10:42;1.23;;;0.90;;
41275;SDS011;27010;47.718;12.912;2024-02-21T01:13:45;3.27;;;1.10;;
41275;SDS011;27010;47.718;12.912;2024-02-21T01:16:47;2.83;;;1.13;;
41275;SDS011;27010;47.718;12.912;2024-02-21T01:19:49;3.73;;;1.23;;
41275;SDS011;27010;47.718;12.912;2024-02-21T01:22:51;3.20;;;1.10;;
41275;SDS011;27010;47.718;12.912;2024-02-21T01:25:53;3.67;;;1.10;;
41275;SDS011;27010;47.718;12.912;2024-02-21T01:28:56;4.60;;;1.50;;
41275;SDS011;27010;47.718;12.912;2024-02-21T01:31:59;2.83;;;1.10;;
41275;SDS011;27010;47.718;12.912;2024-02-21T01:35:01;2.07;;;1.07;;
41275;SDS011;27010;47.718;12.912;2024-02-21T01:38:03;3.40;;;1.40;;
41275;SDS011;27010;47.718;12.912;2024-02-21T01:41:06;3.00;;;1.50;;
41275;SDS011;27010;47.718;12.912;2024-02-21T01:44:08;2.97;;;1.53;;
41275;SDS011;27010;47.718;12.912;2024-02-21T01:47:10;5.00;;;1.57;;
41275;SDS011;27010;47.718;12.912;2024-02-21T01:50:15;4.10;;;1.93;;
41275;SDS011;27010;47.718;12.912;2024-02-21T01:53:20;4.37;;;1.20;;
41275;SDS011;27010;47.718;12.912;2024-02-21T01:56:27;4.40;;;1.27;;
41275;SDS011;27010;47.718;12.912;2024-02-21T01:59:29;4.10;;;1.00;;
41275;SDS011;27010;47.718;12.912;2024-02-21T02:02:31;1.67;;;0.90;;
41275;SDS011;27010;47.718;12.912;2024-02-21T02:05:33;3.27;;;1.20;;
41275;SDS011;27010;47.718;12.912;2024-02-21T02:08:37;3.50;;;1.13;;
41275;SDS011;27010;47.718;12.912;2024-02-21T02:11:39;3.73;;;1.30;;
41275;SDS011;27010;47.718;12.912;2024-02-21T02:14:42;2.67;;;0.93;;
41275;SDS011;27010;47.718;12.912;2024-02-21T02:17:44;3.77;;;1.10;;
41275;SDS011;27010;47.718;12.912;2024-02-21T02:20:47;4.43;;;0.90;;
41275;SDS011;27010;47.718;12.912;2024-02-21T02:23:49;1.10;;;0.87;;
41275;SDS011;27010;47.718;12.912;2024-02-21T02:26:51;2.93;;;1.07;;
41275;SDS011;27010;47.718;12.912;2024-02-21T02:29:53;1.63;;;1.03;;
41275;SDS011;27010;47.718;12.912;2024-02-21T02:32:56;1.67;;;1.03;;
41275;SDS011;27010;47.718;12.912;2024-02-21T02:35:58;1.30;;;0.97;;
41275;SDS011;27010;47.718;12.912;2024-02-21T02:39:01;2.60;;;0.87;;
41275;SDS011;27010;47.718;12.912;2024-02-21T02:42:03;3.83;;;1.00;;
41275;SDS011;27010;47.718;12.912;2024-02-21T02:45:06;1.60;;;0.77;;
41275;SDS011;27010;47.718;12.912;2024-02-21T02:48:09;2.97;;;0.97;;
41275;SDS011;27010;47.718;12.912;2024-02-21T02:51:11;2.27;;;0.87;;
41275;SDS011;27010;47.718;12.912;2024-02-21T02:54:17;4.37;;;1.00;;
41275;SDS011;27010;47.718;12.912;2024-02-21T02:57:20;2.80;;;1.23;;
41275;SDS011;27010;47.718;12.912;2024-02-21T03:00:22;2.50;;;0.77;;
41275;SDS011;27010;47.718;12.912;2024-02-21T03:03:24;2.67;;;0.90;;
41275;SDS011;27010;47.718;12.912;2024-02-21T03:06:26;3.27;;;1.00;;
41275;SDS011;27010;47.718;12.912;2024-02-21T03:09:29;4.17;;;0.87;;
41275;SDS011;27010;47.718;12.912;2024-02-21T03:12:31;2.10;;;0.80;;
41275;SDS011;27010;47.718;12.912;2024-02-21T03:15:33;3.83;;;1.00;;
41275;SDS011;27010;47.718;12.912;2024-02-21T03:18:36;3.03;;;1.00;;
41275;SDS011;27010;47.718;12.912;2024-02-21T03:21:39;2.07;;;0.80;;
41275;SDS011;27010;47.718;12.912;2024-02-21T03:24:41;6.53;;;1.00;;
41275;SDS011;27010;47.718;12.912;2024-02-21T03:27:44;1.60;;;0.80;;
41275;SDS011;27010;47.718;12.912;2024-02-21T03:30:46;3.60;;;1.00;;
41275;SDS011;27010;47.718;12.912;2024-02-21T03:33:48;1.60;;;0.70;;
41275;SDS011;27010;47.718;12.912;2024-02-21T03:36:50;0.90;;;0.60;;
41275;SDS011;27010;47.718;12.912;2024-02-21T03:39:52;1.37;;;0.70;;
41275;SDS011;27010;47.718;12.912;2024-02-21T03:42:54;2.67;;;1.00;;
41275;SDS011;27010;47.718;12.912;2024-02-21T03:45:56;2.30;;;0.97;;
41275;SDS011;27010;47.718;12.912;2024-02-21T03:48:58;1.57;;;0.80;;
41275;SDS011;27010;47.718;12.912;2024-02-21T03:52:02;3.53;;;1.50;;
41275;SDS011;27010;47.718;12.912;2024-02-21T03:55:04;2.37;;;1.60;;
41275;SDS011;27010;47.718;12.912;2024-02-21T03:58:07;4.47;;;3.87;;
41275;SDS011;27010;47.718;12.912;2024-02-21T04:01:09;37.13;;;21.33;;
41275;SDS011;27010;47.718;12.912;2024-02-21T04:04:11;64.43;;;39.97;;
41275;SDS011;27010;47.718;12.912;2024-02-21T04:07:14;18.00;;;12.60;;
41275;SDS011;27010;47.718;12.912;2024-02-21T04:10:16;7.97;;;3.83;;
41275;SDS011;27010;47.718;12.912;2024-02-21T04:13:18;3.17;;;1.70;;
41275;SDS011;27010;47.718;12.912;2024-02-21T04:16:20;1.70;;;1.37;;
41275;SDS011;27010;47.718;12.912;2024-02-21T04:19:22;2.00;;;1.40;;
41275;SDS011;27010;47.718;12.912;2024-02-21T04:22:25;3.87;;;3.10;;
41275;SDS011;27010;47.718;12.912;2024-02-21T04:25:27;4.43;;;0.83;;
41275;SDS011;27010;47.718;12.912;2024-02-21T04:28:29;2.83;;;1.20;;
41275;SDS011;27010;47.718;12.912;2024-02-21T04:31:34;1.63;;;0.83;;
41275;SDS011;27010;47.718;12.912;2024-02-21T04:34:36;5.33;;;1.70;;
41275;SDS011;27010;47.718;12.912;2024-02-21T04:37:38;3.37;;;1.13;;
41275;SDS011;27010;47.718;12.912;2024-02-21T04:40:40;3.53;;;1.33;;
41275;SDS011;27010;47.718;12.912;2024-02-21T04:43:43;3.27;;;1.00;;
41275;SDS011;27010;47.718;12.912;2024-02-21T04:46:45;3.10;;;1.10;;
41275;SDS011;27010;47.718;12.912;2024-02-21T04:49:47;1.20;;;0.80;;
41275;SDS011;27010;47.718;12.912;2024-02-21T04:52:49;2.47;;;0.80;;
41275;SDS011;27010;47.718;12.912;2024-02-21T04:55:51;4.17;;;1.00;;
41275;SDS011;27010;47.718;12.912;2024-02-21T04:58:53;3.57;;;1.00;;
41275;SDS011;27010;47.718;12.912;2024-02-21T05:01:55;3.33;;;0.93;;
41275;SDS011;27010;47.718;12.912;2024-02-21T05:04:57;1.60;;;0.97;;
41275;SDS011;27010;47.718;12.912;2024-02-21T05:07:59;2.17;;;0.87;;
41275;SDS011;27010;47.718;12.912;2024-02-21T05:11:01;0.83;;;0.80;;
41275;SDS011;27010;47.718;12.912;2024-02-21T05:14:04;2.60;;;1.03;;
41275;SDS011;27010;47.718;12.912;2024-02-21T05:17:07;1.97;;;1.10;;
41275;SDS011;27010;47.718;12.912;2024-02-21T05:20:10;1.50;;;0.77;;
41275;SDS011;27010;47.718;12.912;2024-02-21T05:23:12;1.60;;;0.83;;
41275;SDS011;27010;47.718;12.912;2024-02-21T05:26:21;3.87;;;1.20;;
41275;SDS011;27010;47.718;12.912;2024-02-21T05:29:25;4.20;;;0.73;;
41275;SDS011;27010;47.718;12.912;2024-02-21T05:32:27;1.30;;;1.00;;
41275;SDS011;27010;47.718;12.912;2024-02-21T05:35:29;6.07;;;2.57;;
41275;SDS011;27010;47.718;12.912;2024-02-21T05:38:31;6.77;;;1.00;;
41275;SDS011;27010;47.718;12.912;2024-02-21T05:41:33;2.97;;;1.03;;
41275;SDS011;27010;47.718;12.912;2024-02-21T05:44:35;2.43;;;0.97;;
41275;SDS011;27010;47.718;12.912;2024-02-21T05:47:37;1.97;;;0.90;;
41275;SDS011;27010;47.718;12.912;2024-02-21T05:50:39;1.63;;;0.93;;
41275;SDS011;27010;47.718;12.912;2024-02-21T05:53:42;1.23;;;0.80;;
41275;SDS011;27010;47.718;12.912;2024-02-21T05:56:47;0.80;;;0.67;;
41275;SDS011;27010;47.718;12.912;2024-02-21T05:59:49;2.97;;;0.70;;
41275;SDS011;27010;47.718;12.912;2024-02-21T06:02:51;2.50;;;0.60;;
41275;SDS011;27010;47.718;12.912;2024-02-21T06:05:53;1.30;;;0.73;;
41275;SDS011;27010;47.718;12.912;2024-02-21T06:08:54;4.20;;;0.77;;
41275;SDS011;27010;47.718;12.912;2024-02-21T06:11:57;2.00;;;0.87;;
41275;SDS011;27010;47.718;12.912;2024-02-21T06:14:59;2.67;;;0.73;;
41275;SDS011;27010;47.718;12.912;2024-02-21T06:18:01;1.60;;;0.93;;
41275;SDS011;27010;47.718;12.912;2024-02-21T06:21:04;1.73;;;0.80;;
41275;SDS011;27010;47.718;12.912;2024-02-21T06:24:06;5.73;;;0.87;;
41275;SDS011;27010;47.718;12.912;2024-02-21T06:27:08;2.47;;;0.90;;
41275;SDS011;27010;47.718;12.912;2024-02-21T06:30:11;4.80;;;0.87;;
41275;SDS011;27010;47.718;12.912;2024-02-21T06:33:14;2.90;;;0.90;;
41275;SDS011;27010;47.718;12.912;2024-02-21T06:36:18;1.73;;;0.80;;
41275;SDS011;27010;47.718;12.912;2024-02-21T06:39:20;1.90;;;1.00;;
41275;SDS011;27010;47.718;12.912;2024-02-21T06:42:25;2.73;;;0.90;;
41275;SDS011;27010;47.718;12.912;2024-02-21T06:45:27;3.10;;;0.70;;
41275;SDS011;27010;47.718;12.912;2024-02-21T06:48:29;2.17;;;1.30;;
41275;SDS011;27010;47.718;12.912;2024-02-21T06:51:31;1.53;;;0.90;;
41275;SDS011;27010;47.718;12.912;2024-02-21T06:54:33;1.70;;;0.90;;
41275;SDS011;27010;47.718;12.912;2024-02-21T06:57:35;2.67;;;0.97;;
41275;SDS011;27010;47.718;12.912;2024-02-21T07:00:38;3.37;;;0.90;;
41275;SDS011;27010;47.718;12.912;2024-02-21T07:03:41;2.10;;;1.20;;
41275;SDS011;27010;47.718;12.912;2024-02-21T07:06:44;2.37;;;0.90;;
41275;SDS011;27010;47.718;12.912;2024-02-21T07:09:46;1.17;;;0.60;;
41275;SDS011;27010;47.718;12.912;2024-02-21T07:12:50;7.37;;;1.00;;
41275;SDS011;27010;47.718;12.912;2024-02-21T07:15:54;3.90;;;0.80;;
41275;SDS011;27010;47.718;12.912;2024-02-21T07:18:56;3.17;;;0.80;;
41275;SDS011;27010;47.718;12.912;2024-02-21T07:21:58;1.13;;;0.80;;
41275;SDS011;27010;47.718;12.912;2024-02-21T07:25:00;1.30;;;1.00;;
41275;SDS011;27010;47.718;12.912;2024-02-21T07:28:06;2.17;;;0.87;;
41275;SDS011;27010;47.718;12.912;2024-02-21T07:31:08;2.93;;;0.93;;
41275;SDS011;27010;47.718;12.912;2024-02-21T07:34:10;2.57;;;1.10;;
41275;SDS011;27010;47.718;12.912;2024-02-21T07:37:14;0.70;;;0.70;;
41275;SDS011;27010;47.718;12.912;2024-02-21T07:40:16;2.43;;;1.10;;
41275;SDS011;27010;47.718;12.912;2024-02-21T07:43:19;2.07;;;1.00;;
41275;SDS011;27010;47.718;12.912;2024-02-21T07:46:24;1.87;;;0.90;;
41275;SDS011;27010;47.718;12.912;2024-02-21T07:49:26;2.90;;;1.27;;
41275;SDS011;27010;47.718;12.912;2024-02-21T07:52:28;3.23;;;1.00;;
41275;SDS011;27010;47.718;12.912;2024-02-21T07:55:30;8.27;;;1.30;;
41275;SDS011;27010;47.718;12.912;2024-02-21T07:58:32;1.33;;;0.77;;
41275;SDS011;27010;47.718;12.912;2024-02-21T08:01:34;1.03;;;0.80;;
41275;SDS011;27010;47.718;12.912;2024-02-21T08:04:36;1.83;;;0.97;;
41275;SDS011;27010;47.718;12.912;2024-02-21T08:07:40;1.07;;;0.77;;
41275;SDS011;27010;47.718;12.912;2024-02-21T08:10:43;3.47;;;1.57;;
41275;SDS011;27010;47.718;12.912;2024-02-21T08:13:45;2.73;;;1.20;;
41275;SDS011;27010;47.718;12.912;2024-02-21T08:16:47;2.03;;;1.00;;
41275;SDS011;27010;47.718;12.912;2024-02-21T08:19:50;4.23;;;0.90;;
41275;SDS011;27010;47.718;12.912;2024-02-21T08:22:52;2.63;;;0.80;;
41275;SDS011;27010;47.718;12.912;2024-02-21T08:25:55;2.73;;;0.97;;
41275;SDS011;27010;47.718;12.912;2024-02-21T08:28:57;2.33;;;0.83;;
41275;SDS011;27010;47.718;12.912;2024-02-21T08:32:02;2.00;;;0.70;;
41275;SDS011;27010;47.718;12.912;2024-02-21T08:35:05;2.13;;;1.00;;
41275;SDS011;27010;47.718;12.912;2024-02-21T08:38:08;0.80;;;0.53;;
41275;SDS011;27010;47.718;12.912;2024-02-21T08:41:10;2.70;;;0.63;;
41275;SDS011;27010;47.718;12.912;2024-02-21T08:44:13;2.40;;;0.80;;
41275;SDS011;27010;47.718;12.912;2024-02-21T08:47:15;1.90;;;0.97;;
41275;SDS011;27010;47.718;12.912;2024-02-21T08:50:17;3.03;;;0.80;;
41275;SDS011;27010;47.718;12.912;2024-02-21T08:53:29;1.57;;;0.80;;
41275;SDS011;27010;47.718;12.912;2024-02-21T08:56:32;4.83;;;0.90;;
41275;SDS011;27010;47.718;12.912;2024-02-21T08:59:34;4.57;;;1.40;;
41275;SDS011;27010;47.718;12.912;2024-02-21T09:02:39;2.90;;;1.93;;
41275;SDS011;27010;47.718;12.912;2024-02-21T09:05:42;2.93;;;1.20;;
41275;SDS011;27010;47.718;12.912;2024-02-21T09:08:44;1.47;;;0.63;;
41275;SDS011;27010;47.718;12.912;2024-02-21T09:11:46;2.60;;;0.87;;
41275;SDS011;27010;47.718;12.912;2024-02-21T09:14:48;2.23;;;1.07;;
41275;SDS011;27010;47.718;12.912;2024-02-21T09:17:52;2.07;;;0.43;;
41275;SDS011;27010;47.718;12.912;2024-02-21T09:20:54;1.50;;;0.50;;
41275;SDS011;27010;47.718;12.912;2024-02-21T09:23:56;2.00;;;1.10;;
41275;SDS011;27010;47.718;12.912;2024-02-21T09:27:01;1.13;;;0.67;;
41275;SDS011;27010;47.718;12.912;2024-02-21T09:30:03;1.03;;;0.60;;
41275;SDS011;27010;47.718;12.912;2024-02-21T09:33:07;3.60;;;0.70;;
41275;SDS011;27010;47.718;12.912;2024-02-21T09:36:11;1.97;;;0.60;;
41275;SDS011;27010;47.718;12.912;2024-02-21T09:39:14;0.90;;;0.80;;
41275;SDS011;27010;47.718;12.912;2024-02-21T09:42:20;2.93;;;0.63;;
41275;SDS011;27010;47.718;12.912;2024-02-21T09:45:25;2.20;;;0.60;;
41275;SDS011;27010;47.718;12.912;2024-02-21T09:48:34;1.23;;;0.60;;
41275;SDS011;27010;47.718;12.912;2024-02-21T09:51:44;1.03;;;0.50;;
41275;SDS011;27010;47.718;12.912;2024-02-21T09:54:50;0.60;;;0.50;;
41275;SDS011;27010;47.718;12.912;2024-02-21T09:57:56;3.20;;;0.70;;
41275;SDS011;27010;47.718;12.912;2024-02-21T10:01:06;1.60;;;0.70;;
41275;SDS011;27010;47.718;12.912;2024-02-21T10:04:28;2.77;;;0.60;;
41275;SDS011;27010;47.718;12.912;2024-02-21T10:07:31;0.77;;;0.60;;
41275;SDS011;27010;47.718;12.912;2024-02-21T10:10:44;0.70;;;0.50;;
41275;SDS011;27010;47.718;12.912;2024-02-21T10:13:47;1.37;;;0.70;;
41275;SDS011;27010;47.718;12.912;2024-02-21T10:16:56;0.60;;;0.50;;
41275;SDS011;27010;47.718;12.912;2024-02-21T10:20:07;0.73;;;0.40;;
41275;SDS011;27010;47.718;12.912;2024-02-21T10:23:11;0.67;;;0.63;;
41275;SDS011;27010;47.718;12.912;2024-02-21T10:26:15;0.50;;;0.50;;
41275;SDS011;27010;47.718;12.912;2024-02-21T10:29:21;1.27;;;0.70;;
41275;SDS011;27010;47.718;12.912;2024-02-21T10:32:24;0.80;;;0.60;;
41275;SDS011;27010;47.718;12.912;2024-02-21T10:35:29;1.93;;;0.50;;
41275;SDS011;27010;47.718;12.912;2024-02-21T10:38:32;1.17;;;0.50;;
41275;SDS011;27010;47.718;12.912;2024-02-21T10:41:36;1.30;;;0.60;;
41275;SDS011;27010;47.718;12.912;2024-02-21T10:44:39;0.80;;;0.43;;
41275;SDS011;27010;47.718;12.912;2024-02-21T10:47:43;1.17;;;0.60;;
41275;SDS011;27010;47.718;12.912;2024-02-21T10:51:02;0.60;;;0.50;;
41275;SDS011;27010;47.718;12.912;2024-02-21T10:57:24;1.90;;;1.17;;
41275;SDS011;27010;47.718;12.912;2024-02-21T11:00:27;0.50;;;0.50;;
41275;SDS011;27010;47.718;12.912;2024-02-21T11:03:32;0.80;;;0.50;;
41275;SDS011;27010;47.718;12.912;2024-02-21T11:06:35;3.43;;;0.60;;
41275;SDS011;27010;47.718;12.912;2024-02-21T11:09:38;0.63;;;0.50;;
41275;SDS011;27010;47.718;12.912;2024-02-21T11:12:41;2.00;;;0.50;;
41275;SDS011;27010;47.718;12.912;2024-02-21T11:15:43;2.20;;;0.60;;
41275;SDS011;27010;47.718;12.912;2024-02-21T11:18:46;4.50;;;0.60;;
41275;SDS011;27010;47.718;12.912;2024-02-21T11:21:48;1.00;;;0.50;;
41275;SDS011;27010;47.718;12.912;2024-02-21T11:24:53;2.27;;;0.50;;
41275;SDS011;27010;47.718;12.912;2024-02-21T11:27:59;1.73;;;0.67;;
41275;SDS011;27010;47.718;12.912;2024-02-21T11:31:10;3.73;;;0.50;;
41275;SDS011;27010;47.718;12.912;2024-02-21T11:34:17;1.00;;;0.60;;
41275;SDS011;27010;47.718;12.912;2024-02-21T11:37:21;0.83;;;0.60;;
41275;SDS011;27010;47.718;12.912;2024-02-21T11:40:29;1.13;;;0.40;;
41275;SDS011;27010;47.718;12.912;2024-02-21T11:43:35;3.60;;;0.80;;
41275;SDS011;27010;47.718;12.912;2024-02-21T11:46:38;0.53;;;0.30;;
41275;SDS011;27010;47.718;12.912;2024-02-21T11:49:47;1.23;;;0.60;;
41275;SDS011;27010;47.718;12.912;2024-02-21T11:52:57;0.80;;;0.50;;
41275;SDS011;27010;47.718;12.912;2024-02-21T11:56:00;0.40;;;0.40;;
41275;SDS011;27010;47.718;12.912;2024-02-21T11:59:02;0.90;;;0.50;;
41275;SDS011;27010;47.718;12.912;2024-02-21T12:02:05;1.03;;;0.40;;
41275;SDS011;27010;47.718;12.912;2024-02-21T12:05:08;1.03;;;0.50;;
41275;SDS011;27010;47.718;12.912;2024-02-21T12:08:20;0.40;;;0.40;;
41275;SDS011;27010;47.718;12.912;2024-02-21T12:11:28;0.60;;;0.50;;
41275;SDS011;27010;47.718;12.912;2024-02-21T12:14:32;0.70;;;0.50;;
41275;SDS011;27010;47.718;12.912;2024-02-21T12:17:35;1.27;;;0.60;;
41275;SDS011;27010;47.718;12.912;2024-02-21T12:20:40;0.50;;;0.40;;
41275;SDS011;27010;47.718;12.912;2024-02-21T12:23:44;0.57;;;0.50;;
41275;SDS011;27010;47.718;12.912;2024-02-21T12:26:49;1.10;;;0.30;;
41275;SDS011;27010;47.718;12.912;2024-02-21T12:29:51;1.00;;;0.50;;
41275;SDS011;27010;47.718;12.912;2024-02-21T12:32:55;1.90;;;0.70;;
41275;SDS011;27010;47.718;12.912;2024-02-21T12:35:57;1.17;;;0.60;;
41275;SDS011;27010;47.718;12.912;2024-02-21T12:39:00;0.60;;;0.53;;
41275;SDS011;27010;47.718;12.912;2024-02-21T12:42:04;1.63;;;0.63;;
41275;SDS011;27010;47.718;12.912;2024-02-21T12:45:06;1.20;;;0.60;;
41275;SDS011;27010;47.718;12.912;2024-02-21T12:48:09;1.40;;;1.17;;
41275;SDS011;27010;47.718;12.912;2024-02-21T12:51:11;1.30;;;0.87;;
41275;SDS011;27010;47.718;12.912;2024-02-21T12:54:13;0.70;;;0.60;;
41275;SDS011;27010;47.718;12.912;2024-02-21T12:57:15;1.17;;;0.63;;
41275;SDS011;27010;47.718;12.912;2024-02-21T13:00:17;1.30;;;0.70;;
41275;SDS011;27010;47.718;12.912;2024-02-21T13:03:22;0.50;;;0.50;;
41275;SDS011;27010;47.718;12.912;2024-02-21T13:06:30;0.83;;;0.43;;
41275;SDS011;27010;47.718;12.912;2024-02-21T13:09:33;0.80;;;0.60;;
41275;SDS011;27010;47.718;12.912;2024-02-21T13:12:35;0.90;;;0.50;;
41275;SDS011;27010;47.718;12.912;2024-02-21T13:15:38;2.87;;;0.40;;
41275;SDS011;27010;47.718;12.912;2024-02-21T13:19:10;1.50;;;0.60;;
41275;SDS011;27010;47.718;12.912;2024-02-21T13:22:12;0.80;;;0.50;;
41275;SDS011;27010;47.718;12.912;2024-02-21T13:25:15;1.40;;;0.60;;
41275;SDS011;27010;47.718;12.912;2024-02-21T13:28:20;1.27;;;0.57;;
41275;SDS011;27010;47.718;12.912;2024-02-21T13:31:22;0.87;;;0.77;;
41275;SDS011;27010;47.718;12.912;2024-02-21T13:34:25;0.90;;;0.70;;
41275;SDS011;27010;47.718;12.912;2024-02-21T13:37:27;1.13;;;0.50;;
41275;SDS011;27010;47.718;12.912;2024-02-21T13:40:30;2.00;;;0.60;;
41275;SDS011;27010;47.718;12.912;2024-02-21T13:43:32;1.23;;;0.40;;
41275;SDS011;27010;47.718;12.912;2024-02-21T13:46:35;0.73;;;0.50;;
41275;SDS011;27010;47.718;12.912;2024-02-21T13:49:37;1.17;;;0.57;;
41275;SDS011;27010;47.718;12.912;2024-02-21T13:52:43;0.57;;;0.47;;
41275;SDS011;27010;47.718;12.912;2024-02-21T13:55:45;0.63;;;0.40;;
41275;SDS011;27010;47.718;12.912;2024-02-21T13:58:49;0.33;;;0.33;;
41275;SDS011;27010;47.718;12.912;2024-02-21T14:01:51;1.43;;;0.57;;
41275;SDS011;27010;47.718;12.912;2024-02-21T14:04:54;0.50;;;0.50;;
41275;SDS011;27010;47.718;12.912;2024-02-21T14:07:56;0.77;;;0.50;;
41275;SDS011;27010;47.718;12.912;2024-02-21T14:10:58;1.47;;;0.60;;
41275;SDS011;27010;47.718;12.912;2024-02-21T14:14:02;3.73;;;0.90;;
41275;SDS011;27010;47.718;12.912;2024-02-21T14:17:04;1.50;;;0.30;;
41275;SDS011;27010;47.718;12.912;2024-02-21T14:20:07;1.20;;;0.57;;
41275;SDS011;27010;47.718;12.912;2024-02-21T14:23:13;1.17;;;0.50;;
41275;SDS011;27010;47.718;12.912;2024-02-21T14:26:15;1.83;;;0.50;;
41275;SDS011;27010;47.718;12.912;2024-02-21T14:29:17;1.63;;;0.70;;
41275;SDS011;27010;47.718;12.912;2024-02-21T14:32:23;1.47;;;0.87;;
41275;SDS011;27010;47.718;12.912;2024-02-21T14:35:26;0.50;;;0.50;;
41275;SDS011;27010;47.718;12.912;2024-02-21T14:38:29;4.00;;;0.70;;
41275;SDS011;27010;47.718;12.912;2024-02-21T14:41:34;0.60;;;0.43;;
41275;SDS011;27010;47.718;12.912;2024-02-21T14:44:41;2.13;;;0.50;;
41275;SDS011;27010;47.718;12.912;2024-02-21T14:47:44;1.03;;;0.50;;
41275;SDS011;27010;47.718;12.912;2024-02-21T14:50:49;1.03;;;0.50;;
41275;SDS011;27010;47.718;12.912;2024-02-21T14:54:15;1.40;;;0.60;;
41275;SDS011;27010;47.718;12.912;2024-02-21T14:57:20;1.23;;;0.80;;
41275;SDS011;27010;47.718;12.912;2024-02-21T15:00:28;5.20;;;0.50;;
41275;SDS011;27010;47.718;12.912;2024-02-21T15:03:37;3.57;;;0.70;;
41275;SDS011;27010;47.718;12.912;2024-02-21T15:06:40;5.37;;;0.50;;
41275;SDS011;27010;47.718;12.912;2024-02-21T15:09:42;1.07;;;0.53;;
41275;SDS011;27010;47.718;12.912;2024-02-21T15:12:47;1.13;;;0.70;;
41275;SDS011;27010;47.718;12.912;2024-02-21T15:15:49;1.53;;;0.60;;
41275;SDS011;27010;47.718;12.912;2024-02-21T15:18:53;3.40;;;0.53;;
41275;SDS011;27010;47.718;12.912;2024-02-21T15:21:55;0.83;;;0.53;;
41275;SDS011;27010;47.718;12.912;2024-02-21T15:24:57;1.10;;;0.60;;
41275;SDS011;27010;47.718;12.912;2024-02-21T15:27:59;3.10;;;0.70;;
41275;SDS011;27010;47.718;12.912;2024-02-21T15:31:04;2.27;;;0.70;;
41275;SDS011;27010;47.718;12.912;2024-02-21T15:34:06;0.53;;;0.50;;
41275;SDS011;27010;47.718;12.912;2024-02-21T15:37:08;0.40;;;0.40;;
41275;SDS011;27010;47.718;12.912;2024-02-21T15:40:13;3.03;;;0.60;;
41275;SDS011;27010;47.718;12.912;2024-02-21T15:43:26;4.43;;;0.50;;
41275;SDS011;27010;47.718;12.912;2024-02-21T15:46:28;3.60;;;0.60;;
41275;SDS011;27010;47.718;12.912;2024-02-21T15:49:33;1.07;;;0.50;;
41275;SDS011;27010;47.718;12.912;2024-02-21T15:52:35;1.93;;;0.60;;
41275;SDS011;27010;47.718;12.912;2024-02-21T15:55:39;1.10;;;0.60;;
41275;SDS011;27010;47.718;12.912;2024-02-21T15:58:41;1.73;;;0.87;;
41275;SDS011;27010;47.718;12.912;2024-02-21T16:01:44;4.20;;;1.20;;
41275;SDS011;27010;47.718;12.912;2024-02-21T16:04:46;1.13;;;0.83;;
41275;SDS011;27010;47.718;12.912;2024-02-21T16:07:49;1.20;;;0.73;;
41275;SDS011;27010;47.718;12.912;2024-02-21T16:10:54;0.37;;;0.33;;
41275;SDS011;27010;47.718;12.912;2024-02-21T16:13:57;0.97;;;0.50;;
41275;SDS011;27010;47.718;12.912;2024-02-21T16:17:01;1.03;;;0.70;;
41275;SDS011;27010;47.718;12.912;2024-02-21T16:20:04;2.03;;;0.80;;
41275;SDS011;27010;47.718;12.912;2024-02-21T16:23:11;0.80;;;0.60;;
41275;SDS011;27010;47.718;12.912;2024-02-21T16:26:15;0.80;;;0.40;;
41275;SDS011;27010;47.718;12.912;2024-02-21T16:29:17;1.27;;;0.50;;
41275;SDS011;27010;47.718;12.912;2024-02-21T16:32:19;3.10;;;1.10;;
41275;SDS011;27010;47.718;12.912;2024-02-21T16:35:21;1.43;;;0.77;;
41275;SDS011;27010;47.718;12.912;2024-02-21T16:38:26;1.60;;;0.80;;
41275;SDS011;27010;47.718;12.912;2024-02-21T16:41:28;0.90;;;0.70;;
41275;SDS011;27010;47.718;12.912;2024-02-21T16:44:30;5.13;;;0.93;;
41275;SDS011;27010;47.718;12.912;2024-02-21T16:47:34;3.30;;;0.90;;
41275;SDS011;27010;47.718;12.912;2024-02-21T16:50:37;0.87;;;0.50;;
41275;SDS011;27010;47.718;12.912;2024-02-21T16:53:54;2.87;;;0.83;;
41275;SDS011;27010;47.718;12.912;2024-02-21T16:56:57;1.80;;;1.00;;
41275;SDS011;27010;47.718;12.912;2024-02-21T16:59:59;3.50;;;1.30;;
41275;SDS011;27010;47.718;12.912;2024-02-21T17:03:02;3.40;;;1.57;;
41275;SDS011;27010;47.718;12.912;2024-02-21T17:06:05;1.87;;;1.20;;
41275;SDS011;27010;47.718;12.912;2024-02-21T17:09:17;1.83;;;0.90;;
41275;SDS011;27010;47.718;12.912;2024-02-21T17:12:19;1.90;;;1.00;;
41275;SDS011;27010;47.718;12.912;2024-02-21T17:15:22;1.20;;;0.97;;
41275;SDS011;27010;47.718;12.912;2024-02-21T17:18:24;1.37;;;1.10;;
41275;SDS011;27010;47.718;12.912;2024-02-21T17:21:28;2.60;;;0.97;;
41275;SDS011;27010;47.718;12.912;2024-02-21T17:24:30;1.00;;;0.80;;
41275;SDS011;27010;47.718;12.912;2024-02-21T17:27:33;4.20;;;0.60;;
41275;SDS011;27010;47.718;12.912;2024-02-21T17:30:35;1.07;;;0.60;;
41275;SDS011;27010;47.718;12.912;2024-02-21T17:33:37;1.17;;;0.57;;
41275;SDS011;27010;47.718;12.912;2024-02-21T17:36:39;2.90;;;0.80;;
41275;SDS011;27010;47.718;12.912;2024-02-21T17:39:41;0.70;;;0.50;;
41275;SDS011;27010;47.718;12.912;2024-02-21T17:42:44;2.33;;;0.53;;
41275;SDS011;27010;47.718;12.912;2024-02-21T17:45:46;1.43;;;0.87;;
41275;SDS011;27010;47.718;12.912;2024-02-21T17:48:49;2.13;;;0.90;;
41275;SDS011;27010;47.718;12.912;2024-02-21T17:51:51;0.60;;;0.50;;
41275;SDS011;27010;47.718;12.912;2024-02-21T17:54:53;0.50;;;0.50;;
41275;SDS011;27010;47.718;12.912;2024-02-21T17:57:57;0.70;;;0.50;;
41275;SDS011;27010;47.718;12.912;2024-02-21T18:00:59;1.67;;;0.77;;
41275;SDS011;27010;47.718;12.912;2024-02-21T18:04:03;4.53;;;0.60;;
41275;SDS011;27010;47.718;12.912;2024-02-21T18:07:05;1.57;;;0.60;;
41275;SDS011;27010;47.718;12.912;2024-02-21T18:10:07;1.20;;;0.90;;